Blue Island, Illinois
Current Conditions -  °F | °C
As of 11:53 AM on Thursday 29 Jan 2015 (Local Time) from KMDW Reporting Station
Overcast Overcast  
Wind Chill: -5°   Ceiling: 2300
Heat Index:   Visibility: 10mi
Dew Point: -3°   Wind: 21mph
Humidity: 72%   Direction: 310°NW
Pressure: 29.93"   Gusts: 30mph
Location:  41.66°N, 87.68°W
Report Text: KMDW 291753Z 31018G26KT 10SM OVC023 02/M03 A2993 RMK AO2 PK WND 32027/1727 SLP146 60000 T00171028 10028 20017 51040
Loading
Personal Weather Stations






























Interactive Weather Map New forecast layout! Learn more

10-Day Weather Forecast

Advertisements
Track Severe Weather on mobile